Auburn, New Hampshire
Current Conditions -  °F | °C
As of 12:53 AM on Saturday 20 Dec 2014 (Local Time) from KMHT Reporting Station
Scattered Clouds Scattered Clouds  
Wind Chill: -9°   Ceiling: Unl
Heat Index: -4°   Visibility: 10mi
Dew Point: -7°   Wind: 9mph
Humidity: 78%   Direction: 340°NNW
Pressure: 30.16"   Gusts: NA
Location:  43°N, 71.35°W
Report Text: KMHT 200553Z 34008KT 10SM SCT040 M04/M07 A3016 RMK AO2 SLP231 T10391072 11017 21039 53014
Loading
Personal Weather Stations






























Interactive Weather Map New forecast layout! Learn more

10-Day Weather Forecast

Advertisements
Track Severe Weather on mobile